• pl
  • eng

Awiacja
TAF FC 04:30 19.06.2018
  • WIND
  • SIGNIFICANT EURO
  • SIGNIFICANT
  • SIGMET
  • AIRMET
  • TAF FC
  • TAF FT
  • METAR GG30
  • METAR GG00


TAF EPLB 182330Z 1900/1909 29005KT CAVOK
PROB30 TEMPO 1900/1906 -SHRA BKN040TCU=

TAF EPLB 190230Z 1903/1912 29006KT CAVOK=

TAF EPSY 182330Z 1900/1909 VRB03KT CAVOK
PROB40 TEMPO 1900/1904 4000 MIFG
BECMG 1907/1909 25010KT=

TAF EPSY 190230Z 1903/1912 VRB03KT CAVOK
PROB30 TEMPO 1903/1905 4000 MIFG BR
BECMG 1907/1910 25010KT=

TAF EPZG 182330Z 1900/1909 22004KT CAVOK=

TAF EPZG 190230Z 1903/1912 22006KT CAVOK
TEMPO 1909/1912 22015G25KT=
Awiacja.imgw.pl jest pogodowym serwisem informacyjnym
Instytutu Meteorologii i Gospodarki Wodnej Państwowego Instytutu Badawczego.
Copyright IMGW PIB 2009-2011© Wszelkie prawa zastrzeżone.